createdAt,value
2018-03-15T00:01:07.162Z,-0.20
2018-03-15T00:03:35.555Z,-0.20
2018-03-15T00:06:03.907Z,-0.20
2018-03-15T00:08:32.357Z,-0.20
2018-03-15T00:11:00.659Z,-0.20
2018-03-15T00:13:29.175Z,-0.20
2018-03-15T00:15:57.547Z,-0.30
2018-03-15T00:18:25.890Z,-0.30
2018-03-15T00:20:54.305Z,-0.30
2018-03-15T00:23:22.708Z,-0.40
2018-03-15T00:25:51.079Z,-0.40
2018-03-15T00:28:19.423Z,-0.30
2018-03-15T00:30:47.788Z,-0.30
2018-03-15T00:33:17.101Z,-0.40
2018-03-15T00:35:45.560Z,-0.40
2018-03-15T00:38:14.110Z,-0.40
2018-03-15T00:40:43.422Z,-0.60
2018-03-15T00:43:12.565Z,-0.50
2018-03-15T00:45:41.729Z,-0.50
2018-03-15T00:48:10.056Z,-0.50
2018-03-15T00:50:39.377Z,-0.50
2018-03-15T00:53:07.983Z,-0.60
2018-03-15T00:55:37.296Z,-0.50
2018-03-15T00:58:05.716Z,-0.60
2018-03-15T01:00:34.056Z,-0.50
2018-03-15T01:03:02.469Z,-0.60
2018-03-15T01:05:31.570Z,-0.60
2018-03-15T01:08:00.679Z,-0.60
2018-03-15T01:10:29.775Z,-0.60
2018-03-15T01:12:58.114Z,-0.60
2018-03-15T01:15:26.589Z,-0.70
2018-03-15T01:17:55.742Z,-0.50
2018-03-15T01:20:24.978Z,-0.50
2018-03-15T01:22:53.353Z,-0.50
2018-03-15T01:25:21.765Z,-0.50
2018-03-15T01:27:50.143Z,-0.40
2018-03-15T01:30:18.652Z,-0.50
2018-03-15T01:32:47.132Z,-0.50
2018-03-15T01:35:15.544Z,-0.50
2018-03-15T01:37:43.871Z,-0.50
2018-03-15T01:40:12.266Z,-0.50
2018-03-15T01:42:40.618Z,-0.50
2018-03-15T01:45:09.163Z,-0.40
2018-03-15T01:47:37.498Z,-0.40
2018-03-15T01:50:05.840Z,-0.50
2018-03-15T01:52:35.175Z,-0.60
2018-03-15T01:55:03.539Z,-0.70
2018-03-15T01:57:31.938Z,-0.60
2018-03-15T02:00:00.268Z,-0.70
2018-03-15T02:02:28.614Z,-0.70
2018-03-15T02:04:56.946Z,-0.80
2018-03-15T02:07:25.292Z,-0.90
2018-03-15T02:09:53.663Z,-0.90
2018-03-15T02:12:22.879Z,-1.10
2018-03-15T02:14:52.073Z,-1.20
2018-03-15T02:17:20.510Z,-1.20
2018-03-15T02:19:48.920Z,-1.10
2018-03-15T02:22:17.319Z,-1.20
2018-03-15T02:24:45.745Z,-1.20
2018-03-15T02:27:14.154Z,-1.10
2018-03-15T02:29:43.271Z,-1.10
2018-03-15T02:32:12.387Z,-1.00
2018-03-15T02:34:40.719Z,-1.10
2018-03-15T02:37:09.064Z,-0.90
2018-03-15T02:39:38.212Z,-1.00
2018-03-15T02:42:06.568Z,-1.00
2018-03-15T02:44:34.916Z,-1.00
2018-03-15T02:47:03.336Z,-1.00
2018-03-15T02:49:32.441Z,-1.10
2018-03-15T02:52:01.580Z,-0.90
2018-03-15T02:54:29.887Z,-0.90
2018-03-15T02:56:58.220Z,-0.90
2018-03-15T02:59:26.531Z,-1.00
2018-03-15T03:01:55.639Z,-1.00
2018-03-15T03:04:24.783Z,-1.00
2018-03-15T03:06:53.192Z,-1.00
2018-03-15T03:09:21.561Z,-1.00
2018-03-15T03:11:49.979Z,-0.90
2018-03-15T03:14:18.361Z,-0.90
2018-03-15T03:16:46.763Z,-0.80
2018-03-15T03:19:15.158Z,-0.90
2018-03-15T03:21:43.496Z,-0.90
2018-03-15T03:24:11.897Z,-0.90
2018-03-15T03:26:40.228Z,-0.80
2018-03-15T03:29:08.611Z,-0.80
2018-03-15T03:31:36.947Z,-0.80
2018-03-15T03:34:06.059Z,-0.80
2018-03-15T03:36:35.167Z,-0.80
2018-03-15T03:39:04.281Z,-0.90
2018-03-15T03:41:33.435Z,-0.80
2018-03-15T03:44:01.788Z,-0.80
2018-03-15T03:46:30.887Z,-0.80
2018-03-15T03:48:59.982Z,-0.80
2018-03-15T03:51:28.319Z,-0.80
2018-03-15T03:53:56.804Z,-0.80
2018-03-15T03:56:25.154Z,-0.80
2018-03-15T03:58:53.557Z,-0.80
2018-03-15T04:01:22.295Z,-0.80
2018-03-15T04:03:50.660Z,-0.80
2018-03-15T04:06:19.117Z,-0.80
2018-03-15T04:08:47.532Z,-0.90
2018-03-15T04:11:16.820Z,-0.90
2018-03-15T04:13:45.283Z,-0.90
2018-03-15T04:16:13.615Z,-0.90
2018-03-15T04:18:42.023Z,-0.90
2018-03-15T04:21:10.364Z,-0.80
2018-03-15T04:23:38.698Z,-0.80
2018-03-15T04:26:07.036Z,-0.80
2018-03-15T04:28:35.565Z,-0.80
2018-03-15T04:31:03.969Z,-0.80
2018-03-15T04:33:32.311Z,-0.80
2018-03-15T04:36:00.652Z,-0.90
2018-03-15T04:38:29.070Z,-1.00
2018-03-15T04:40:58.162Z,-1.00
2018-03-15T04:43:26.563Z,-1.00
2018-03-15T04:45:54.898Z,-1.00
2018-03-15T04:48:23.258Z,-1.00
2018-03-15T04:50:51.641Z,-1.00
2018-03-15T04:53:20.763Z,-1.10
2018-03-15T04:55:49.932Z,-1.10
2018-03-15T04:58:18.356Z,-1.10
2018-03-15T05:00:47.530Z,-1.10
2018-03-15T05:03:15.914Z,-1.10
2018-03-15T05:05:45.121Z,-1.20
2018-03-15T05:08:13.498Z,-1.20
2018-03-15T05:10:41.836Z,-1.20
2018-03-15T05:13:10.310Z,-1.30
2018-03-15T05:15:38.635Z,-1.30
2018-03-15T05:18:07.742Z,-1.40
2018-03-15T05:20:36.931Z,-1.40
2018-03-15T05:23:05.289Z,-1.40
2018-03-15T05:25:33.779Z,-1.40
2018-03-15T05:28:02.124Z,-1.40
2018-03-15T05:30:30.542Z,-1.40
2018-03-15T05:32:59.657Z,-1.40
2018-03-15T05:35:28.056Z,-1.40
2018-03-15T05:37:56.462Z,-1.40
2018-03-15T05:40:24.828Z,-1.50
2018-03-15T05:42:54.062Z,-1.40
2018-03-15T05:45:22.490Z,-1.50
2018-03-15T05:47:50.950Z,-1.40
2018-03-15T05:50:19.296Z,-1.50
2018-03-15T05:52:47.762Z,-1.40
2018-03-15T05:55:17.104Z,-1.40
2018-03-15T05:57:46.235Z,-1.50
2018-03-15T06:00:14.697Z,-1.40
2018-03-15T06:02:43.142Z,-1.30
2018-03-15T06:05:11.484Z,-1.40
2018-03-15T06:07:39.831Z,-1.40
2018-03-15T06:10:08.155Z,-1.40
2018-03-15T06:12:36.569Z,-1.40
2018-03-15T06:15:05.688Z,-1.40
2018-03-15T06:17:34.858Z,-1.40
2018-03-15T06:20:03.332Z,-1.40
2018-03-15T06:22:31.682Z,-1.40
2018-03-15T06:25:00.930Z,-1.40
2018-03-15T06:27:29.271Z,-1.40
2018-03-15T06:29:57.623Z,-1.40
2018-03-15T06:32:25.954Z,-1.40
2018-03-15T06:34:54.291Z,-1.40
2018-03-15T06:37:22.771Z,-1.30
2018-03-15T06:39:51.137Z,-1.40
2018-03-15T06:42:19.659Z,-1.30
2018-03-15T06:44:48.192Z,-1.30
2018-03-15T06:47:16.642Z,-1.30
2018-03-15T06:49:46.201Z,-1.20
2018-03-15T06:52:15.492Z,-1.10
2018-03-15T06:54:43.835Z,-1.10
2018-03-15T06:57:12.375Z,-1.00
2018-03-15T06:59:40.708Z,-1.00
2018-03-15T07:02:09.119Z,-1.00
2018-03-15T07:04:37.553Z,-0.90
2018-03-15T07:07:05.945Z,-0.90
2018-03-15T07:09:34.318Z,-0.80
2018-03-15T07:12:03.418Z,-0.70
2018-03-15T07:14:32.594Z,-0.60
2018-03-15T07:17:00.947Z,-0.70
2018-03-15T07:19:29.273Z,-0.60
2018-03-15T07:21:57.627Z,-0.60
2018-03-15T07:24:25.971Z,-0.60
2018-03-15T07:26:54.389Z,-0.50
2018-03-15T07:29:23.496Z,-0.50
2018-03-15T07:31:52.591Z,-0.50
2018-03-15T07:34:20.987Z,-0.50
2018-03-15T07:36:49.436Z,-0.40
2018-03-15T07:39:18.217Z,-0.40
2018-03-15T07:41:46.862Z,-0.30
2018-03-15T07:44:15.412Z,-0.20
2018-03-15T07:46:43.787Z,-0.20
2018-03-15T07:49:12.188Z,-0.10
2018-03-15T07:51:40.578Z,0.00
2018-03-15T07:54:08.918Z,0.10
2018-03-15T07:56:37.259Z,0.20
2018-03-15T07:59:05.614Z,0.20
2018-03-15T08:01:34.032Z,0.30
2018-03-15T08:04:03.178Z,0.40
2018-03-15T08:06:31.506Z,0.30
2018-03-15T08:08:59.955Z,0.40
2018-03-15T08:11:28.340Z,0.40
2018-03-15T08:13:57.416Z,0.30
2018-03-15T08:16:26.504Z,0.30
2018-03-15T08:18:54.838Z,0.20
2018-03-15T08:21:24.311Z,0.40
2018-03-15T08:23:52.652Z,0.30
2018-03-15T08:26:21.019Z,0.40
2018-03-15T08:28:50.170Z,0.50
2018-03-15T08:31:18.634Z,0.50
2018-03-15T08:33:47.864Z,0.70
2018-03-15T08:36:16.471Z,0.70
2018-03-15T08:38:44.937Z,0.80
2018-03-15T08:41:14.062Z,0.90
2018-03-15T08:43:42.456Z,0.90
2018-03-15T08:46:10.856Z,1.00
2018-03-15T08:48:39.199Z,1.00
2018-03-15T08:51:07.581Z,1.10
2018-03-15T08:53:35.923Z,1.20
2018-03-15T08:56:04.249Z,1.30
2018-03-15T08:58:32.640Z,1.40
2018-03-15T09:01:00.967Z,1.50
2018-03-15T09:03:30.071Z,1.90
2018-03-15T09:05:59.179Z,1.90
2018-03-15T09:08:27.520Z,1.90
2018-03-15T09:10:55.929Z,2.00
2018-03-15T09:13:24.280Z,2.00
2018-03-15T09:15:52.694Z,1.90
2018-03-15T09:18:21.053Z,1.80
2018-03-15T09:20:49.604Z,1.70
2018-03-15T09:23:18.048Z,1.70
2018-03-15T09:25:46.441Z,1.90
2018-03-15T09:28:14.836Z,2.00
2018-03-15T09:30:43.241Z,2.10
2018-03-15T09:33:13.164Z,2.20
2018-03-15T09:35:42.505Z,2.20
2018-03-15T09:38:10.878Z,2.30
2018-03-15T09:40:39.229Z,2.40
2018-03-15T09:43:08.347Z,2.60
2018-03-15T09:45:36.708Z,2.60
2018-03-15T09:48:05.130Z,2.70
2018-03-15T09:50:33.504Z,2.80
2018-03-15T09:53:01.843Z,2.70
2018-03-15T09:55:30.209Z,2.70
2018-03-15T09:57:58.571Z,2.60
2018-03-15T10:00:26.987Z,2.50
2018-03-15T10:02:55.360Z,2.60
2018-03-15T10:05:23.792Z,2.60
2018-03-15T10:07:52.190Z,2.70
2018-03-15T10:10:20.611Z,2.80
2018-03-15T10:12:49.132Z,2.90
2018-03-15T10:15:18.428Z,3.20
2018-03-15T10:17:47.727Z,3.40
2018-03-15T10:20:16.156Z,3.40
2018-03-15T10:22:44.898Z,3.60
2018-03-15T10:25:13.911Z,3.60
2018-03-15T10:27:41.721Z,3.70
2018-03-15T10:30:10.146Z,3.80
2018-03-15T10:32:39.336Z,4.00
2018-03-15T10:35:14.198Z,4.00
2018-03-15T10:37:43.303Z,4.20
2018-03-15T10:40:11.808Z,4.10
2018-03-15T10:42:40.995Z,4.50
2018-03-15T10:45:09.331Z,4.50
2018-03-15T10:47:37.679Z,4.60
2018-03-15T10:50:06.028Z,4.60
2018-03-15T10:52:34.364Z,4.70
2018-03-15T10:55:03.100Z,4.90
2018-03-15T10:57:31.442Z,5.00
2018-03-15T10:59:59.878Z,5.00
2018-03-15T11:02:34.608Z,5.10
2018-03-15T11:05:03.763Z,5.30
2018-03-15T11:07:39.407Z,5.30
2018-03-15T11:10:16.801Z,5.40
2018-03-15T11:12:45.409Z,5.50
2018-03-15T11:15:13.866Z,5.50
2018-03-15T11:17:42.412Z,5.40
2018-03-15T11:20:10.771Z,5.50
2018-03-15T11:22:39.130Z,5.50
2018-03-15T11:25:07.535Z,5.50
2018-03-15T11:27:35.961Z,5.60
2018-03-15T11:30:04.470Z,5.80
2018-03-15T11:32:32.785Z,5.80
2018-03-15T11:35:01.119Z,5.80
2018-03-15T11:37:29.477Z,6.00
2018-03-15T11:39:57.836Z,6.20
2018-03-15T11:42:26.378Z,6.30
2018-03-15T11:44:54.720Z,6.30
2018-03-15T11:47:23.205Z,6.20
2018-03-15T11:49:51.672Z,6.20
2018-03-15T11:52:20.913Z,6.10
2018-03-15T11:54:49.709Z,6.00
2018-03-15T11:57:18.294Z,6.20
2018-03-15T11:59:46.810Z,6.20
2018-03-15T12:02:15.322Z,6.30
2018-03-15T12:04:45.486Z,6.40
2018-03-15T12:07:14.115Z,6.40
2018-03-15T12:09:42.892Z,6.50
2018-03-15T12:12:11.463Z,6.60
2018-03-15T12:14:39.834Z,6.70
2018-03-15T12:17:08.205Z,6.60
2018-03-15T12:19:37.341Z,6.80
2018-03-15T12:22:05.678Z,6.70
2018-03-15T12:24:34.016Z,6.70
2018-03-15T12:27:02.346Z,6.70
2018-03-15T12:29:30.750Z,6.90
2018-03-15T12:31:59.164Z,7.00
2018-03-15T12:34:28.254Z,6.90
2018-03-15T12:36:56.592Z,6.90
2018-03-15T12:39:24.983Z,6.80
2018-03-15T12:41:53.335Z,6.90
2018-03-15T12:44:21.898Z,7.00
2018-03-15T12:46:50.306Z,7.10
2018-03-15T12:49:18.664Z,6.90
2018-03-15T12:51:47.116Z,6.80
2018-03-15T12:54:16.241Z,6.90
2018-03-15T12:56:44.765Z,7.10
2018-03-15T12:59:13.131Z,7.30
2018-03-15T13:01:41.522Z,7.20
2018-03-15T13:04:09.857Z,7.30
2018-03-15T13:06:38.194Z,7.60
2018-03-15T13:09:07.476Z,8.00
2018-03-15T13:11:35.864Z,8.00
2018-03-15T13:14:04.197Z,8.20
2018-03-15T13:16:33.364Z,8.60
2018-03-15T13:19:01.708Z,8.60
2018-03-15T13:21:30.039Z,8.50
2018-03-15T13:23:58.423Z,8.70
2018-03-15T13:26:26.861Z,8.80
2018-03-15T13:28:55.929Z,9.10
2018-03-15T13:31:24.463Z,9.10
2018-03-15T13:33:53.531Z,9.00
2018-03-15T13:36:21.906Z,9.10
2018-03-15T13:38:50.284Z,8.90
2018-03-15T13:41:18.645Z,8.70
2018-03-15T13:43:47.176Z,8.70
2018-03-15T13:46:16.428Z,9.00
2018-03-15T13:48:44.868Z,9.00
2018-03-15T13:51:13.180Z,8.90
2018-03-15T13:53:41.502Z,8.90
2018-03-15T13:56:09.869Z,8.90
2018-03-15T13:58:38.247Z,8.60
2018-03-15T14:01:06.646Z,8.50
2018-03-15T14:03:35.031Z,8.10
2018-03-15T14:06:03.360Z,7.90
2018-03-15T14:08:31.691Z,7.70
2018-03-15T14:11:00.935Z,7.50
2018-03-15T14:13:29.252Z,7.30
2018-03-15T14:15:58.368Z,7.10
2018-03-15T14:18:26.757Z,7.10
2018-03-15T14:20:56.006Z,7.00
2018-03-15T14:23:24.629Z,7.00
2018-03-15T14:25:53.101Z,7.00
2018-03-15T14:28:21.648Z,7.00
2018-03-15T14:30:50.048Z,6.90
2018-03-15T14:33:19.298Z,6.80
2018-03-15T14:35:47.685Z,6.80
2018-03-15T14:38:16.194Z,6.80
2018-03-15T14:40:44.564Z,6.80
2018-03-15T14:43:12.882Z,6.80
2018-03-15T14:45:41.280Z,6.80
2018-03-15T14:48:09.680Z,6.70
2018-03-15T14:50:37.993Z,6.70
2018-03-15T14:53:07.069Z,6.70
2018-03-15T14:55:35.371Z,6.70
2018-03-15T14:58:04.047Z,6.60
2018-03-15T15:00:32.405Z,6.60
2018-03-15T15:03:00.740Z,6.50
2018-03-15T15:05:29.217Z,6.50
2018-03-15T15:07:57.654Z,6.50
2018-03-15T15:10:26.885Z,6.40
2018-03-15T15:12:55.452Z,6.40
2018-03-15T15:15:24.710Z,6.30
2018-03-15T15:17:53.171Z,6.30
2018-03-15T15:20:21.693Z,6.30
2018-03-15T15:22:50.067Z,6.20
2018-03-15T15:25:18.395Z,6.10
2018-03-15T15:27:46.711Z,6.00
2018-03-15T15:30:15.242Z,6.00
2018-03-15T15:32:43.563Z,5.90
2018-03-15T15:35:11.963Z,5.90
2018-03-15T15:37:40.310Z,5.90
2018-03-15T15:40:08.614Z,5.80
2018-03-15T15:42:37.695Z,5.70
2018-03-15T15:45:06.016Z,5.70
2018-03-15T15:47:35.138Z,5.60
2018-03-15T15:50:03.539Z,5.60
2018-03-15T15:52:31.834Z,5.60
2018-03-15T15:55:00.266Z,5.60
2018-03-15T15:57:28.702Z,5.60
2018-03-15T15:59:57.192Z,5.60
2018-03-15T16:02:26.374Z,5.50
2018-03-15T16:04:55.527Z,5.50
2018-03-15T16:07:23.989Z,5.50
2018-03-15T16:09:52.582Z,5.40
2018-03-15T16:12:21.046Z,5.40
2018-03-15T16:14:49.433Z,5.30
2018-03-15T16:17:17.745Z,5.30
2018-03-15T16:19:46.815Z,5.30
2018-03-15T16:22:15.144Z,5.30
2018-03-15T16:24:43.492Z,5.20
2018-03-15T16:27:11.796Z,5.20
2018-03-15T16:29:40.088Z,5.20
2018-03-15T16:32:08.427Z,5.20
2018-03-15T16:34:36.710Z,5.10
2018-03-15T16:37:05.847Z,5.10
2018-03-15T16:39:34.152Z,5.00
2018-03-15T16:42:02.484Z,5.00
2018-03-15T16:44:30.789Z,5.00
2018-03-15T16:46:59.286Z,4.90
2018-03-15T16:49:28.550Z,4.80
2018-03-15T16:51:56.969Z,4.80
2018-03-15T16:54:25.613Z,4.80
2018-03-15T16:56:54.009Z,4.80
2018-03-15T16:59:22.577Z,4.80
2018-03-15T17:01:51.113Z,4.80
2018-03-15T17:04:20.246Z,4.70
2018-03-15T17:06:48.612Z,4.70
2018-03-15T17:09:17.020Z,4.60
2018-03-15T17:11:45.338Z,4.60
2018-03-15T17:14:13.696Z,4.60
2018-03-15T17:16:41.992Z,4.50
2018-03-15T17:19:10.310Z,4.40
2018-03-15T17:21:38.611Z,4.40
2018-03-15T17:24:07.683Z,4.40
2018-03-15T17:26:36.048Z,4.40
2018-03-15T17:29:04.356Z,4.40
2018-03-15T17:31:32.655Z,4.40
2018-03-15T17:34:01.064Z,4.30
2018-03-15T17:36:29.425Z,4.30
2018-03-15T17:38:57.852Z,4.30
2018-03-15T17:41:26.186Z,4.40
2018-03-15T17:43:54.588Z,4.30
2018-03-15T17:46:23.087Z,4.30
2018-03-15T17:48:51.560Z,4.30
2018-03-15T17:51:20.757Z,4.30
2018-03-15T17:53:49.043Z,4.30
2018-03-15T17:56:17.376Z,4.30
2018-03-15T17:58:45.731Z,4.30
2018-03-15T18:01:14.173Z,4.30
2018-03-15T18:03:42.550Z,4.30
2018-03-15T18:06:10.878Z,4.30
2018-03-15T18:08:39.183Z,4.30
2018-03-15T18:11:07.493Z,4.30
2018-03-15T18:13:36.568Z,4.30
2018-03-15T18:16:04.947Z,4.20
2018-03-15T18:18:33.259Z,4.20
2018-03-15T18:21:01.577Z,4.20
2018-03-15T18:23:30.642Z,4.10
2018-03-15T18:25:59.044Z,4.10
2018-03-15T18:28:27.569Z,4.20
2018-03-15T18:30:56.026Z,4.10
2018-03-15T18:33:24.415Z,4.20
2018-03-15T18:35:53.037Z,4.10
2018-03-15T18:38:23.133Z,4.20
2018-03-15T18:40:52.474Z,4.20
2018-03-15T18:43:20.889Z,4.20
2018-03-15T18:45:49.960Z,4.20
2018-03-15T18:48:18.263Z,4.20
2018-03-15T18:50:46.595Z,4.20
2018-03-15T18:53:15.688Z,4.10
2018-03-15T18:55:44.756Z,4.20
2018-03-15T18:58:13.057Z,4.10
2018-03-15T19:00:41.376Z,4.10
2018-03-15T19:03:10.484Z,4.10
2018-03-15T19:05:39.703Z,4.00
2018-03-15T19:08:08.775Z,4.10
2018-03-15T19:10:37.088Z,4.10
2018-03-15T19:13:05.521Z,4.10
2018-03-15T19:15:34.569Z,4.10
2018-03-15T19:18:02.871Z,4.10
2018-03-15T19:20:31.237Z,4.00
2018-03-15T19:22:59.706Z,4.00
2018-03-15T19:25:28.162Z,4.00
2018-03-15T19:27:57.275Z,4.00
2018-03-15T19:30:26.454Z,4.00
2018-03-15T19:32:54.992Z,4.00
2018-03-15T19:35:23.511Z,4.10
2018-03-15T19:37:51.988Z,4.10
2018-03-15T19:40:20.343Z,4.00
2018-03-15T19:42:48.703Z,4.00
2018-03-15T19:45:17.050Z,4.00
2018-03-15T19:47:46.188Z,4.00
2018-03-15T19:50:14.604Z,4.00
2018-03-15T19:52:42.913Z,3.90
2018-03-15T19:55:11.246Z,3.90
2018-03-15T19:57:39.548Z,3.90
2018-03-15T20:00:07.907Z,3.90
2018-03-15T20:02:36.970Z,3.90
2018-03-15T20:05:09.064Z,3.90
2018-03-15T20:07:37.383Z,3.90
2018-03-15T20:10:05.688Z,3.90
2018-03-15T20:12:34.031Z,3.90
2018-03-15T20:15:02.372Z,3.90
2018-03-15T20:17:30.869Z,3.80
2018-03-15T20:19:59.314Z,3.80
2018-03-15T20:22:34.163Z,3.80
2018-03-15T20:25:02.539Z,3.80
2018-03-15T20:27:36.779Z,3.80
2018-03-15T20:30:05.129Z,3.80
2018-03-15T20:32:39.252Z,3.80
2018-03-15T20:35:07.604Z,3.80
2018-03-15T20:37:35.944Z,3.80
2018-03-15T20:40:10.702Z,3.80
2018-03-15T20:42:39.035Z,3.70
2018-03-15T20:45:07.363Z,3.70
2018-03-15T20:47:42.475Z,3.70
2018-03-15T20:50:10.819Z,3.70
2018-03-15T20:52:39.142Z,3.70
2018-03-15T20:55:07.523Z,3.70
2018-03-15T20:57:35.866Z,3.70
2018-03-15T21:00:04.938Z,3.70
2018-03-15T21:02:33.256Z,3.70
2018-03-15T21:05:02.372Z,3.60
2018-03-15T21:07:31.441Z,3.70
2018-03-15T21:09:59.929Z,3.60
2018-03-15T21:12:28.283Z,3.60
2018-03-15T21:14:56.691Z,3.60
2018-03-15T21:17:25.021Z,3.60
2018-03-15T21:19:53.425Z,3.50
2018-03-15T21:22:21.927Z,3.50
2018-03-15T21:24:50.330Z,3.50
2018-03-15T21:27:18.738Z,3.50
2018-03-15T21:29:46.990Z,3.50
2018-03-15T21:32:15.292Z,3.50
2018-03-15T21:34:44.361Z,3.50
2018-03-15T21:37:12.668Z,3.50
2018-03-15T21:39:40.962Z,3.40
2018-03-15T21:42:09.265Z,3.50
2018-03-15T21:44:38.399Z,3.60
2018-03-15T21:47:06.708Z,3.50
2018-03-15T21:49:35.129Z,3.50
2018-03-15T21:52:03.448Z,3.50
2018-03-15T21:54:32.523Z,3.50
2018-03-15T21:57:00.957Z,3.50
2018-03-15T21:59:29.332Z,3.50
2018-03-15T22:01:58.466Z,3.40
2018-03-15T22:04:26.830Z,3.40
2018-03-15T22:06:55.245Z,3.40
2018-03-15T22:09:23.670Z,3.40
2018-03-15T22:11:52.052Z,3.40
2018-03-15T22:14:20.406Z,3.50
2018-03-15T22:16:49.480Z,3.50
2018-03-15T22:19:17.781Z,3.50
2018-03-15T22:21:46.171Z,3.50
2018-03-15T22:24:14.527Z,3.40
2018-03-15T22:26:42.841Z,3.50
2018-03-15T22:29:11.149Z,3.50
2018-03-15T22:31:39.458Z,3.50
2018-03-15T22:34:07.882Z,3.50
2018-03-15T22:36:36.189Z,3.50
2018-03-15T22:39:04.509Z,3.50
2018-03-15T22:41:32.821Z,3.40
2018-03-15T22:44:01.152Z,3.40
2018-03-15T22:46:29.611Z,3.50
2018-03-15T22:48:58.722Z,3.30
2018-03-15T22:51:27.873Z,3.20
2018-03-15T22:53:56.370Z,3.10
2018-03-15T22:56:24.959Z,3.10
2018-03-15T22:58:53.395Z,3.00
2018-03-15T23:01:21.819Z,3.00
2018-03-15T23:03:50.143Z,2.90
2018-03-15T23:06:18.476Z,2.80
2018-03-15T23:08:46.787Z,2.80
2018-03-15T23:11:16.108Z,2.70
2018-03-15T23:13:45.244Z,2.70
2018-03-15T23:16:13.598Z,2.60
2018-03-15T23:18:41.864Z,2.60
2018-03-15T23:21:10.170Z,2.50
2018-03-15T23:23:38.472Z,2.50
2018-03-15T23:26:07.596Z,2.40
2018-03-15T23:28:35.923Z,2.40
2018-03-15T23:31:04.271Z,2.40
2018-03-15T23:33:32.614Z,2.40
2018-03-15T23:36:01.083Z,2.40
2018-03-15T23:38:29.489Z,2.40
2018-03-15T23:40:57.866Z,2.40
2018-03-15T23:43:26.238Z,2.40
2018-03-15T23:45:54.618Z,2.40
2018-03-15T23:48:22.991Z,2.40
2018-03-15T23:50:51.432Z,2.40
2018-03-15T23:53:19.784Z,2.40
2018-03-15T23:55:48.824Z,2.40
2018-03-15T23:58:17.136Z,2.40
